Time;durP1;ratioP1;P1;durP2;ratioP2;P2;SDS_P1;SDS_P2;PMS_P1;PMS_P2;Temp;Humidity;BMP_temperature;BMP_pressure;BME280_temperature;BME280_humidity;BME280_pressure;Samples;Min_cycle;Max_cycle;Signal;HPM_P1;HPM_P2
2021/04/08 00:01:16;;;;;;;;;;;;;;;20.57;29.12;102213.47;2209591;39;115917;-58
2021/04/08 00:02:48;;;;;;;;;;;;;;;20.56;28.96;102215.44;2198481;39;116096;-57
2021/04/08 00:04:19;;;;;;;;;;;;;;;20.55;29.01;102216.56;2189550;39;115573;-56
2021/04/08 00:05:50;;;;;;;;;;;;;;;20.57;28.66;102213.47;2203062;39;116252;-58
2021/04/08 00:07:21;;;;;;;;;;;;;;;20.55;29.11;102215.72;2208322;39;115487;-58
2021/04/08 00:08:53;;;;;;;;;;;;;;;20.54;29.19;102212.06;2205346;39;114088;-57
2021/04/08 00:10:24;;;;;;;;;;;;;;;20.52;29.05;102210.66;2206673;39;114268;-56
2021/04/08 00:11:56;;;;;;;;;;;;;;;20.49;29.28;102211.22;2200383;39;113792;-58
2021/04/08 00:13:27;;;;;;;;;;;;;;;20.49;29.33;102211.22;2201614;39;113830;-59
2021/04/08 00:14:58;;;;;;;;;;;;;;;20.49;29.26;102212.03;2200056;39;113678;-58
2021/04/08 00:16:29;;;;;;;;;;;;;;;20.46;29.21;102209.81;2202635;39;114480;-56
2021/04/08 00:18:01;;;;;;;;;;;;;;;20.45;29.38;102210.06;2204150;39;114285;-59
2021/04/08 00:19:32;;;;;;;;;;;;;;;20.43;29.19;102204.75;2203757;39;113950;-57
2021/04/08 00:21:03;;;;;;;;;;;;;;;20.42;29.21;102203.06;2204062;39;114135;-57
2021/04/08 00:22:35;;;;;;;;;;;;;;;20.40;29.33;102203.31;2203191;39;113984;-57
2021/04/08 00:24:06;;;;;;;;;;;;;;;20.39;29.19;102207.28;2205072;39;113681;-57
2021/04/08 00:25:38;;;;;;;;;;;;;;;20.36;29.53;102204.16;2203759;39;113653;-57
2021/04/08 00:27:09;;;;;;;;;;;;;;;20.37;29.63;102203.88;2204709;39;113679;-58
2021/04/08 00:28:41;;;;;;;;;;;;;;;20.36;29.51;102206.97;2208024;39;114050;-58
2021/04/08 00:30:12;;;;;;;;;;;;;;;20.35;29.38;102200.50;2205645;39;114792;-57
2021/04/08 00:31:43;;;;;;;;;;;;;;;20.31;29.46;102210.59;2204432;39;114794;-59
2021/04/08 00:33:16;;;;;;;;;;;;;;;20.32;29.62;102212.28;2204519;39;114864;-58
2021/04/08 00:34:47;;;;;;;;;;;;;;;20.31;29.34;102207.78;2204991;39;114878;-59
2021/04/08 00:36:18;;;;;;;;;;;;;;;20.30;29.48;102210.91;2205733;39;114916;-56
2021/04/08 00:37:49;;;;;;;;;;;;;;;20.29;29.58;102212.81;2204484;39;115317;-57
2021/04/08 00:39:21;;;;;;;;;;;;;;;20.25;29.83;102210.84;2203849;39;114784;-59
2021/04/08 00:40:52;;;;;;;;;;;;;;;20.27;29.91;102217.84;2208423;39;114900;-59
2021/04/08 00:42:23;;;;;;;;;;;;;;;20.24;29.70;102209.16;2207715;39;115065;-58
2021/04/08 00:43:57;;;;;;;;;;;;;;;20.22;29.81;102215.03;2206974;39;115344;-56
2021/04/08 00:45:28;;;;;;;;;;;;;;;20.20;29.88;102214.47;2208878;39;114790;-56
2021/04/08 00:46:59;;;;;;;;;;;;;;;20.19;29.93;102214.75;2193131;39;114946;-57
2021/04/08 00:48:31;;;;;;;;;;;;;;;20.18;29.65;102218.66;2188893;39;114947;-57
2021/04/08 00:50:03;;;;;;;;;;;;;;;20.18;29.80;102210.25;2198819;39;115881;-59
2021/04/08 00:51:34;;;;;;;;;;;;;;;20.17;29.96;102223.44;2198195;39;115627;-57
2021/04/08 00:53:08;;;;;;;;;;;;;;;20.18;30.03;102221.47;2191670;39;115721;-56
2021/04/08 00:54:39;;;;;;;;;;;;;;;20.17;30.26;102217.00;2189019;39;115456;-56
2021/04/08 00:56:11;;;;;;;;;;;;;;;20.16;30.31;102215.31;2196102;39;114751;-56
2021/04/08 00:57:42;;;;;;;;;;;;;;;20.13;30.06;102213.03;2197670;39;115738;-56
2021/04/08 00:59:14;;;;;;;;;;;;;;;20.12;29.92;102217.81;2199916;39;115995;-57
2021/04/08 01:00:46;;;;;;;;;;;;;;;20.10;30.29;102217.25;2195795;39;114569;-56
2021/04/08 01:02:17;;;;;;;;;;;;;;;20.06;30.45;102215.25;2200718;39;115453;-57
2021/04/08 01:03:49;;;;;;;;;;;;;;;20.10;30.19;102216.38;2195326;39;115636;-56
2021/04/08 01:05:20;;;;;;;;;;;;;;;20.07;30.49;102216.94;2195875;39;115849;-58
2021/04/08 01:06:52;;;;;;;;;;;;;;;20.08;30.15;102218.66;2206827;39;115981;-57
2021/04/08 01:08:23;;;;;;;;;;;;;;;20.04;30.26;102221.13;2197581;39;116031;-58
2021/04/08 01:09:54;;;;;;;;;;;;;;;20.05;30.26;102221.97;2201202;39;114557;-57
2021/04/08 01:11:26;;;;;;;;;;;;;;;20.02;30.26;102219.72;2187618;39;115609;-56
2021/04/08 01:13:00;;;;;;;;;;;;;;;20.04;30.68;102220.28;2195221;39;115606;-58
2021/04/08 01:14:32;;;;;;;;;;;;;;;20.02;30.37;102216.94;2197902;39;115328;-57
2021/04/08 01:16:05;;;;;;;;;;;;;;;20.02;30.60;102209.34;2198530;39;113913;-56
2021/04/08 01:17:46;;;;;;;;;;;;;;;20.01;30.75;102212.44;2191215;39;114269;-59
2021/04/08 01:19:29;;;;;;;;;;;;;;;19.99;30.53;102219.16;2200559;39;113680;-57
2021/04/08 01:21:03;;;;;;;;;;;;;;;19.97;30.80;102207.38;2198351;39;114299;-56
2021/04/08 01:22:47;;;;;;;;;;;;;;;19.95;30.59;102206.78;2198099;39;113852;-56
2021/04/08 01:24:28;;;;;;;;;;;;;;;19.97;30.83;102212.13;2198097;39;114147;-57
2021/04/08 01:26:12;;;;;;;;;;;;;;;19.98;30.90;102208.22;2198472;39;114135;-58
2021/04/08 01:27:53;;;;;;;;;;;;;;;19.97;30.99;102206.53;2198048;39;114286;-57
2021/04/08 01:29:27;;;;;;;;;;;;;;;19.96;31.09;102207.63;2197462;39;114967;-56
2021/04/08 01:30:59;;;;;;;;;;;;;;;19.95;30.99;102208.75;2199392;39;113868;-56
2021/04/08 01:32:32;;;;;;;;;;;;;;;19.95;31.29;102203.13;2203760;39;113721;-58
2021/04/08 01:34:05;;;;;;;;;;;;;;;19.92;31.48;102203.69;2198005;39;114288;-56
2021/04/08 01:35:37;;;;;;;;;;;;;;;19.91;31.03;102202.84;2192367;39;113992;-57
2021/04/08 01:37:09;;;;;;;;;;;;;;;19.91;30.98;102207.59;2196113;39;115085;-57
2021/04/08 01:38:44;;;;;;;;;;;;;;;19.91;31.23;102207.59;2198243;39;114869;-57
2021/04/08 01:40:17;;;;;;;;;;;;;;;19.89;31.14;102204.25;2183918;39;115132;-56
2021/04/08 01:41:48;;;;;;;;;;;;;;;19.88;31.14;102197.78;2187269;39;115294;-56
2021/04/08 01:43:21;;;;;;;;;;;;;;;19.89;30.89;102202.28;2200161;39;114905;-56
2021/04/08 01:44:55;;;;;;;;;;;;;;;19.88;31.19;102197.78;2201433;39;115282;-56
2021/04/08 01:46:27;;;;;;;;;;;;;;;19.89;31.08;102201.44;2197140;39;114843;-57
2021/04/08 01:48:00;;;;;;;;;;;;;;;19.87;31.05;102190.50;2191423;39;114808;-57
2021/04/08 01:49:36;;;;;;;;;;;;;;;19.87;31.32;102189.66;2187955;39;115214;-56
2021/04/08 01:51:07;;;;;;;;;;;;;;;19.85;31.27;102192.72;2189277;39;114845;-56
2021/04/08 01:52:45;;;;;;;;;;;;;;;19.84;30.91;102193.00;2195712;39;115568;-58
2021/04/08 01:54:16;;;;;;;;;;;;;;;19.83;31.14;102200.56;2197771;39;114802;-56
2021/04/08 01:55:50;;;;;;;;;;;;;;;19.81;31.00;102188.78;2197313;39;114862;-59
2021/04/08 01:57:27;;;;;;;;;;;;;;;19.79;31.22;102193.81;2202714;39;115229;-58
2021/04/08 01:59:00;;;;;;;;;;;;;;;19.81;31.55;102196.34;2197892;39;115640;-60
2021/04/08 02:00:31;;;;;;;;;;;;;;;19.81;31.02;102193.53;2191115;39;115910;-57
2021/04/08 02:02:03;;;;;;;;;;;;;;;19.78;31.36;102196.91;2196815;39;115658;-58
2021/04/08 02:03:34;;;;;;;;;;;;;;;19.78;31.46;102188.47;2202802;39;116042;-58
2021/04/08 02:05:09;;;;;;;;;;;;;;;19.74;31.35;102193.78;2204745;39;115473;-58
2021/04/08 02:06:41;;;;;;;;;;;;;;;19.75;31.48;102181.47;2208668;39;115485;-59
2021/04/08 02:08:13;;;;;;;;;;;;;;;19.75;31.52;102177.81;2204308;39;115568;-58
2021/04/08 02:09:45;;;;;;;;;;;;;;;19.75;31.67;102181.47;2202162;39;115801;-58
2021/04/08 02:11:18;;;;;;;;;;;;;;;19.72;31.77;102179.19;2195129;39;117348;-55
2021/04/08 02:12:50;;;;;;;;;;;;;;;19.71;32.06;102177.53;2201924;39;116051;-56
2021/04/08 02:14:21;;;;;;;;;;;;;;;19.70;32.05;102181.44;2204420;39;115685;-57
2021/04/08 02:15:53;;;;;;;;;;;;;;;19.72;31.71;102179.19;2197461;39;115564;-58
2021/04/08 02:17:24;;;;;;;;;;;;;;;19.71;31.87;102173.88;2203105;39;115859;-58
2021/04/08 02:18:56;;;;;;;;;;;;;;;19.70;31.88;102173.03;2206913;39;116472;-57
2021/04/08 02:20:29;;;;;;;;;;;;;;;19.70;31.99;102172.19;2206824;39;113687;-59
2021/04/08 02:22:02;;;;;;;;;;;;;;;19.69;32.33;102171.34;2207770;39;113687;-58
2021/04/08 02:23:34;;;;;;;;;;;;;;;19.71;31.88;102176.69;2202654;39;113717;-57
2021/04/08 02:25:10;;;;;;;;;;;;;;;19.70;31.93;102175.00;2204906;39;113755;-57
2021/04/08 02:26:43;;;;;;;;;;;;;;;19.71;31.97;102179.50;2206542;39;113838;-58
2021/04/08 02:28:14;;;;;;;;;;;;;;;19.65;32.11;102174.97;2210275;39;113781;-59
2021/04/08 02:29:46;;;;;;;;;;;;;;;19.68;32.00;102174.41;2203281;39;113915;-57
2021/04/08 02:31:19;;;;;;;;;;;;;;;19.66;32.28;102171.91;2205911;39;113586;-58
2021/04/08 02:32:51;;;;;;;;;;;;;;;19.65;32.43;102167.41;2206519;39;113676;-58
2021/04/08 02:34:23;;;;;;;;;;;;;;;19.64;32.38;102174.13;2209483;39;113754;-57
2021/04/08 02:35:55;;;;;;;;;;;;;;;19.64;32.36;102168.50;2205283;39;114138;-59
2021/04/08 02:37:26;;;;;;;;;;;;;;;19.65;32.28;102169.34;2202194;39;113917;-58
2021/04/08 02:38:57;;;;;;;;;;;;;;;19.64;32.47;102167.66;2206005;39;113979;-56
2021/04/08 02:40:29;;;;;;;;;;;;;;;19.62;32.59;102165.16;2206844;39;114362;-57
2021/04/08 02:42:00;;;;;;;;;;;;;;;19.60;32.31;102161.75;2213321;39;113579;-58
2021/04/08 02:43:31;;;;;;;;;;;;;;;19.59;32.29;102164.81;2199227;39;114637;-58
2021/04/08 02:45:04;;;;;;;;;;;;;;;19.57;32.52;102155.88;2201927;39;115316;-56
2021/04/08 02:46:35;;;;;;;;;;;;;;;19.56;32.84;102156.97;2201118;39;113769;-56
2021/04/08 02:48:08;;;;;;;;;;;;;;;19.54;32.56;102152.47;2206674;39;114734;-58
2021/04/08 02:49:39;;;;;;;;;;;;;;;19.57;32.63;102150.25;2202449;39;114756;-59
2021/04/08 02:51:14;;;;;;;;;;;;;;;19.55;32.67;102153.31;2196393;39;115062;-58
2021/04/08 02:52:51;;;;;;;;;;;;;;;19.56;32.61;102146.59;2204241;39;114948;-57
2021/04/08 02:54:32;;;;;;;;;;;;;;;19.54;32.77;102149.66;2204212;39;115088;-56
2021/04/08 02:56:12;;;;;;;;;;;;;;;19.53;32.81;102145.16;2206483;39;115401;-56
2021/04/08 02:57:49;;;;;;;;;;;;;;;19.52;32.70;102137.06;2203520;39;114939;-56
2021/04/08 02:59:30;;;;;;;;;;;;;;;19.52;32.60;102126.69;2196359;39;115437;-59
2021/04/08 03:01:07;;;;;;;;;;;;;;;19.52;32.60;102131.44;2201122;39;115171;-56
2021/04/08 03:02:42;;;;;;;;;;;;;;;19.53;32.83;102136.75;2206893;39;115100;-57
2021/04/08 03:04:15;;;;;;;;;;;;;;;19.52;32.54;102137.06;2201299;39;115240;-57
2021/04/08 03:05:47;;;;;;;;;;;;;;;19.50;32.83;102133.66;2203284;39;115569;-58
2021/04/08 03:07:27;;;;;;;;;;;;;;;19.46;32.88;102138.13;2204585;39;116252;-55
2021/04/08 03:09:00;;;;;;;;;;;;;;;19.48;32.67;102128.34;2202180;39;115572;-58
2021/04/08 03:10:32;;;;;;;;;;;;;;;19.45;32.94;102126.06;2200067;39;115718;-57
2021/04/08 03:12:05;;;;;;;;;;;;;;;19.46;32.68;102135.34;2205749;39;115740;-56
2021/04/08 03:13:38;;;;;;;;;;;;;;;19.46;32.79;102133.38;2197848;39;115667;-56
2021/04/08 03:15:12;;;;;;;;;;;;;;;19.46;32.52;102132.53;2200766;39;115371;-59
2021/04/08 03:16:46;;;;;;;;;;;;;;;19.45;32.78;102133.63;2208540;39;116285;-57
2021/04/08 03:18:19;;;;;;;;;;;;;;;19.43;32.81;102141.47;2201144;39;116042;-58
2021/04/08 03:19:52;;;;;;;;;;;;;;;19.43;32.76;102141.47;2204074;39;116113;-59
2021/04/08 03:21:25;;;;;;;;;;;;;;;19.44;32.50;102146.00;2204682;39;114776;-57
2021/04/08 03:22:59;;;;;;;;;;;;;;;19.39;32.78;102132.75;2205315;39;115607;-57
2021/04/08 03:24:31;;;;;;;;;;;;;;;19.42;32.75;102148.19;2197940;39;115574;-59
2021/04/08 03:26:03;;;;;;;;;;;;;;;19.41;32.57;102150.13;2206368;39;115591;-58
2021/04/08 03:27:35;;;;;;;;;;;;;;;19.41;32.78;102149.28;2205071;39;114190;-56
2021/04/08 03:29:07;;;;;;;;;;;;;;;19.39;32.60;102154.34;2203923;39;113952;-58
2021/04/08 03:30:40;;;;;;;;;;;;;;;19.37;32.61;102149.00;2198417;39;113803;-58
2021/04/08 03:32:12;;;;;;;;;;;;;;;19.40;32.74;102158.78;2203337;39;114170;-56
2021/04/08 03:33:44;;;;;;;;;;;;;;;19.37;32.92;102154.59;2205588;39;113731;-58
2021/04/08 03:35:15;;;;;;;;;;;;;;;19.36;32.86;102158.50;2203913;39;113885;-57
2021/04/08 03:36:47;;;;;;;;;;;;;;;19.37;33.04;102150.94;2205190;39;113945;-56
2021/04/08 03:38:19;;;;;;;;;;;;;;;19.33;32.80;102161.00;2204071;39;113623;-55
2021/04/08 03:39:50;;;;;;;;;;;;;;;19.30;32.70;102155.97;2204580;39;113721;-58
2021/04/08 03:41:22;;;;;;;;;;;;;;;19.32;32.66;102148.09;2206055;39;114144;-58
2021/04/08 03:42:54;;;;;;;;;;;;;;;19.33;32.74;102147.00;2205523;39;113680;-57
2021/04/08 03:44:26;;;;;;;;;;;;;;;19.34;32.87;102148.69;2204276;39;113875;-58
2021/04/08 03:46:00;;;;;;;;;;;;;;;19.33;32.97;102155.41;2205945;39;113724;-58
2021/04/08 03:47:32;;;;;;;;;;;;;;;19.27;33.18;102150.88;2207515;39;113766;-55
2021/04/08 03:49:04;;;;;;;;;;;;;;;19.29;32.84;102152.31;2204889;39;114781;-57
2021/04/08 03:50:36;;;;;;;;;;;;;;;19.28;32.82;102146.97;2198292;39;115070;-56
2021/04/08 03:52:08;;;;;;;;;;;;;;;19.28;32.89;102152.56;2203310;39;114840;-56
2021/04/08 03:53:39;;;;;;;;;;;;;;;19.25;32.97;102151.16;2204195;39;114823;-58
2021/04/08 03:55:11;;;;;;;;;;;;;;;19.28;32.80;102149.75;2205155;39;114803;-58
2021/04/08 03:56:44;;;;;;;;;;;;;;;19.28;32.69;102158.16;2199485;39;114933;-56
2021/04/08 03:58:17;;;;;;;;;;;;;;;19.25;32.97;102150.31;2206412;39;114949;-56
2021/04/08 03:59:48;;;;;;;;;;;;;;;19.23;32.89;102142.16;2207642;39;115022;-57
2021/04/08 04:01:20;;;;;;;;;;;;;;;19.23;32.84;102144.97;2203879;39;114824;-56
2021/04/08 04:02:52;;;;;;;;;;;;;;;19.24;32.96;102140.22;2204847;39;114852;-56
2021/04/08 04:04:24;;;;;;;;;;;;;;;19.22;32.84;102142.44;2200052;39;114120;-59
2021/04/08 04:05:55;;;;;;;;;;;;;;;19.21;32.79;102126.75;2205383;39;115549;-58
2021/04/08 04:07:27;;;;;;;;;;;;;;;19.20;32.90;102133.47;2205129;39;114884;-59
2021/04/08 04:08:58;;;;;;;;;;;;;;;19.16;33.01;102121.97;2207685;39;114777;-59
2021/04/08 04:10:34;;;;;;;;;;;;;;;19.16;32.99;102121.97;2206835;39;115691;-57
2021/04/08 04:12:05;;;;;;;;;;;;;;;19.16;32.82;102123.94;2196571;39;115611;-59
2021/04/08 04:13:36;;;;;;;;;;;;;;;19.15;32.84;102119.44;2199846;39;116106;-57
2021/04/08 04:15:09;;;;;;;;;;;;;;;19.18;32.88;102119.72;2191797;39;115497;-57
2021/04/08 04:16:41;;;;;;;;;;;;;;;19.15;32.87;102127.84;2200467;39;115644;-57
2021/04/08 04:18:17;;;;;;;;;;;;;;;19.14;33.01;102137.34;2205119;39;115504;-59
2021/04/08 04:19:48;;;;;;;;;;;;;;;19.11;32.84;102141.53;2206293;39;115947;-58
2021/04/08 04:21:39;;;;;;;;;;;;;;;19.15;33.11;102137.09;2205283;39;115826;-56
2021/04/08 04:23:11;;;;;;;;;;;;;;;19.19;33.25;102141.03;2205501;39;115859;-58
2021/04/08 04:24:42;;;;;;;;;;;;;;;19.23;33.35;102139.38;2206892;39;115108;-55
2021/04/08 04:26:13;;;;;;;;;;;;;;;19.26;33.45;102138.00;2207032;39;115665;-58
2021/04/08 04:27:45;;;;;;;;;;;;;;;19.24;33.50;102129.84;2205034;39;115622;-58
2021/04/08 04:29:16;;;;;;;;;;;;;;;19.26;33.72;102135.19;2197988;39;115621;-56
2021/04/08 04:30:50;;;;;;;;;;;;;;;19.27;33.75;102134.91;2202932;39;115762;-58
2021/04/08 04:32:21;;;;;;;;;;;;;;;19.30;33.83;102134.38;2209483;39;116189;-56
2021/04/08 04:33:52;;;;;;;;;;;;;;;19.34;33.81;102131.88;2203036;39;114085;-58
2021/04/08 04:35:24;;;;;;;;;;;;;;;19.36;34.06;102124.88;2204887;39;113842;-57
2021/04/08 04:36:55;;;;;;;;;;;;;;;19.38;33.91;102119.00;2205265;39;114022;-55
2021/04/08 04:38:26;;;;;;;;;;;;;;;19.41;34.03;102115.66;2204616;39;113661;-55
2021/04/08 04:39:57;;;;;;;;;;;;;;;19.44;34.42;102123.56;2206103;39;113642;-58
2021/04/08 04:41:28;;;;;;;;;;;;;;;19.46;34.40;102127.78;2206243;39;114022;-56
2021/04/08 04:42:59;;;;;;;;;;;;;;;19.51;34.27;102118.53;2203338;39;113864;-56
2021/04/08 04:44:31;;;;;;;;;;;;;;;19.55;34.30;102122.47;2204410;39;113950;-57
2021/04/08 04:46:02;;;;;;;;;;;;;;;19.59;34.22;102120.81;2205151;39;113744;-57
2021/04/08 04:47:34;;;;;;;;;;;;;;;19.64;34.29;102122.81;2205714;39;113647;-58
2021/04/08 04:49:05;;;;;;;;;;;;;;;19.68;33.75;102115.53;2205035;39;113851;-56
2021/04/08 04:50:36;;;;;;;;;;;;;;;19.74;33.73;102117.25;2197977;39;113774;-58
2021/04/08 04:52:07;;;;;;;;;;;;;;;19.77;33.71;102114.72;2197375;39;113896;-56
2021/04/08 04:53:38;;;;;;;;;;;;;;;19.82;33.48;102105.47;2205037;39;114583;-57
2021/04/08 04:55:11;;;;;;;;;;;;;;;19.86;33.48;102113.06;2200924;39;115275;-57
2021/04/08 04:56:42;;;;;;;;;;;;;;;19.90;33.75;102116.16;2203700;39;115057;-55
2021/04/08 04:58:13;;;;;;;;;;;;;;;19.95;33.54;102121.78;2206521;39;114937;-58
2021/04/08 04:59:44;;;;;;;;;;;;;;;20.00;33.52;102124.63;2208481;39;114841;-58
2021/04/08 05:01:15;;;;;;;;;;;;;;;20.06;33.17;102119.88;2198892;39;115026;-59
2021/04/08 05:02:46;;;;;;;;;;;;;;;20.10;33.36;102118.19;2204237;39;114974;-58
2021/04/08 05:04:18;;;;;;;;;;;;;;;20.14;33.25;102116.50;2202956;39;114837;-57
2021/04/08 05:05:49;;;;;;;;;;;;;;;20.18;33.26;102112.88;2204734;39;115111;-56
2021/04/08 05:07:20;;;;;;;;;;;;;;;20.23;32.76;102112.88;2208383;39;114901;-59
2021/04/08 05:08:51;;;;;;;;;;;;;;;20.28;32.94;102112.91;2204877;39;115012;-56
2021/04/08 05:10:22;;;;;;;;;;;;;;;20.32;33.35;102111.25;2198089;39;114919;-56
2021/04/08 05:11:53;;;;;;;;;;;;;;;20.36;33.05;102109.56;2196092;39;115502;-57
2021/04/08 05:13:25;;;;;;;;;;;;;;;20.40;32.86;102101.41;2201736;39;114051;-56
2021/04/08 05:14:56;;;;;;;;;;;;;;;20.44;33.02;102101.72;2207733;39;115079;-58
2021/04/08 05:16:27;;;;;;;;;;;;;;;20.49;32.78;102113.78;2206145;39;115423;-56
2021/04/08 05:17:58;;;;;;;;;;;;;;;20.54;33.00;102112.94;2204856;39;115584;-55
2021/04/08 05:19:31;;;;;;;;;;;;;;;20.56;33.08;102114.38;2198115;39;115987;-56
2021/04/08 05:21:02;;;;;;;;;;;;;;;20.62;33.64;102113.25;2203003;39;115855;-57
2021/04/08 05:22:33;;;;;;;;;;;;;;;20.65;33.04;102111.84;2207975;39;115557;-58
2021/04/08 05:24:05;;;;;;;;;;;;;;;20.68;32.95;102112.09;2208466;39;115590;-55
2021/04/08 05:25:36;;;;;;;;;;;;;;;20.72;33.18;102116.03;2204275;39;115519;-55
2021/04/08 05:27:07;;;;;;;;;;;;;;;20.76;32.82;102105.91;2202004;39;115961;-56
2021/04/08 05:28:39;;;;;;;;;;;;;;;20.78;32.97;102103.69;2207201;39;115453;-56
2021/04/08 05:30:10;;;;;;;;;;;;;;;20.82;32.87;102101.16;2203843;39;115505;-58
2021/04/08 05:31:42;;;;;;;;;;;;;;;20.85;32.95;102100.56;2202534;39;115442;-58
2021/04/08 05:33:13;;;;;;;;;;;;;;;20.89;33.17;102096.09;2204906;39;115482;-58
2021/04/08 05:34:44;;;;;;;;;;;;;;;20.93;32.67;102097.22;2203491;39;115484;-57
2021/04/08 05:36:15;;;;;;;;;;;;;;;20.95;32.77;102097.75;2204259;39;116946;-56
2021/04/08 05:37:47;;;;;;;;;;;;;;;20.99;32.53;102106.44;2204008;39;113844;-58
2021/04/08 05:39:18;;;;;;;;;;;;;;;21.04;32.73;102100.81;2204547;39;113674;-57
2021/04/08 05:40:49;;;;;;;;;;;;;;;21.06;32.93;102099.44;2204698;39;114031;-57
2021/04/08 05:42:21;;;;;;;;;;;;;;;21.09;32.67;102100.81;2207204;39;113985;-56
2021/04/08 05:43:52;;;;;;;;;;;;;;;21.11;32.59;102099.44;2204640;39;114018;-56
2021/04/08 05:45:24;;;;;;;;;;;;;;;21.14;32.48;102096.06;2206099;39;113754;-57
2021/04/08 05:46:55;;;;;;;;;;;;;;;21.16;32.45;102096.63;2205916;39;113584;-56
2021/04/08 05:48:26;;;;;;;;;;;;;;;21.20;32.60;102100.56;2205073;39;113756;-56
2021/04/08 05:49:57;;;;;;;;;;;;;;;21.22;32.26;102095.47;2197436;39;114190;-58
2021/04/08 05:51:29;;;;;;;;;;;;;;;21.25;32.55;102099.72;2195432;39;113612;-58
2021/04/08 05:53:00;;;;;;;;;;;;;;;21.30;32.36;102102.50;2202280;39;113678;-57
2021/04/08 05:54:31;;;;;;;;;;;;;;;21.34;32.36;102106.44;2207446;39;113929;-57
2021/04/08 05:56:03;;;;;;;;;;;;;;;21.37;32.13;102100.22;2202227;39;113815;-58
2021/04/08 05:57:34;;;;;;;;;;;;;;;21.39;31.98;102103.59;2197636;39;113648;-58
2021/04/08 05:59:05;;;;;;;;;;;;;;;21.43;32.54;102103.88;2203132;39;113712;-58
2021/04/08 06:00:37;;;;;;;;;;;;;;;21.46;32.55;102101.31;2204431;39;114937;-58
2021/04/08 06:02:08;;;;;;;;;;;;;;;21.49;32.39;102088.63;2204995;39;114574;-58
2021/04/08 06:03:39;;;;;;;;;;;;;;;21.51;32.44;102092.00;2204358;39;115712;-59
2021/04/08 06:05:12;;;;;;;;;;;;;;;21.53;32.18;102089.78;2204306;39;114892;-57
2021/04/08 06:06:43;;;;;;;;;;;;;;;21.56;32.07;102092.84;2203143;39;114813;-59
2021/04/08 06:08:14;;;;;;;;;;;;;;;21.59;32.08;102095.06;2203956;39;114361;-56
2021/04/08 06:09:46;;;;;;;;;;;;;;;21.63;32.18;102086.88;2197236;39;114950;-58
2021/04/08 06:11:17;;;;;;;;;;;;;;;21.66;32.04;102090.00;2195489;39;114997;-58
2021/04/08 06:12:49;;;;;;;;;;;;;;;21.66;31.76;102081.56;2199865;39;114839;-56
2021/04/08 06:14:23;;;;;;;;;;;;;;;21.70;32.15;102085.47;2196122;39;114925;-59
2021/04/08 06:15:54;;;;;;;;;;;;;;;21.73;31.82;102086.84;2201494;39;115369;-57
2021/04/08 06:17:25;;;;;;;;;;;;;;;21.75;31.66;102087.41;2208358;39;114012;-57
2021/04/08 06:18:56;;;;;;;;;;;;;;;21.78;31.89;102083.16;2205939;39;114679;-57
2021/04/08 06:20:28;;;;;;;;;;;;;;;21.81;32.28;102075.00;2208308;39;115180;-59
2021/04/08 06:22:06;;;;;;;;;;;;;;;21.83;32.17;102078.38;2203949;39;115428;-60
2021/04/08 06:23:37;;;;;;;;;;;;;;;21.84;31.73;102088.50;2198494;39;116039;-57
2021/04/08 06:25:10;;;;;;;;;;;;;;;21.87;31.46;102090.72;2200659;39;117382;-58
2021/04/08 06:26:41;;;;;;;;;;;;;;;21.89;31.85;102090.44;2204280;39;115659;-57
2021/04/08 06:28:13;;;;;;;;;;;;;;;21.92;31.60;102099.13;2204837;39;115913;-56
2021/04/08 06:29:44;;;;;;;;;;;;;;;21.94;31.54;102096.88;2202205;39;115733;-59
2021/04/08 06:31:15;;;;;;;;;;;;;;;21.97;31.52;102101.13;2204366;39;115588;-57
2021/04/08 06:32:46;;;;;;;;;;;;;;;21.99;31.28;102102.50;2207711;39;115971;-56
2021/04/08 06:34:18;;;;;;;;;;;;;;;22.00;31.66;102101.38;2198323;39;115552;-59
2021/04/08 06:35:49;;;;;;;;;;;;;;;22.02;31.44;102109.53;2200552;39;115471;-57
2021/04/08 06:37:20;;;;;;;;;;;;;;;22.05;31.75;102108.94;2200427;39;114791;-58
2021/04/08 06:38:52;;;;;;;;;;;;;;;22.05;31.55;102098.53;2194684;39;116178;-56
2021/04/08 06:40:27;;;;;;;;;;;;;;;22.08;31.23;102100.75;2204736;39;114620;-57
2021/04/08 06:41:58;;;;;;;;;;;;;;;22.11;31.54;102100.19;2201408;39;115859;-56
2021/04/08 06:43:31;;;;;;;;;;;;;;;22.13;31.62;102099.88;2201875;39;114696;-57
2021/04/08 06:45:05;;;;;;;;;;;;;;;22.15;31.29;102098.47;2205086;39;113636;-56
2021/04/08 06:46:39;;;;;;;;;;;;;;;22.17;31.20;102103.78;2198010;39;113758;-57
2021/04/08 06:48:11;;;;;;;;;;;;;;;22.19;31.27;102107.16;2206254;39;114002;-58
2021/04/08 06:49:47;;;;;;;;;;;;;;;22.21;31.48;102096.47;2202526;39;114161;-58
2021/04/08 06:51:19;;;;;;;;;;;;;;;22.24;31.37;102095.03;2194158;39;113715;-57
2021/04/08 06:52:51;;;;;;;;;;;;;;;22.25;31.19;102091.94;2196142;39;113934;-56
2021/04/08 06:54:23;;;;;;;;;;;;;;;22.26;31.00;102084.31;2195779;39;114434;-58
2021/04/08 06:55:56;;;;;;;;;;;;;;;22.27;31.29;102089.66;2201906;39;113600;-56
2021/04/08 06:57:28;;;;;;;;;;;;;;;22.29;31.01;102090.22;2199236;39;113849;-58
2021/04/08 06:58:59;;;;;;;;;;;;;;;22.29;31.10;102087.38;2204732;39;113923;-55
2021/04/08 07:00:38;;;;;;;;;;;;;;;22.31;30.91;102096.38;2199476;39;113862;-58
2021/04/08 07:02:17;;;;;;;;;;;;;;;22.30;30.89;102091.91;2200565;39;113918;-58
2021/04/08 07:03:49;;;;;;;;;;;;;;;22.31;30.81;102089.91;2201545;39;114105;-57
2021/04/08 07:05:20;;;;;;;;;;;;;;;22.31;31.06;102090.75;2200643;39;114979;-56
2021/04/08 07:06:51;;;;;;;;;;;;;;;22.30;30.93;102100.34;2203014;39;115335;-57
2021/04/08 07:08:23;;;;;;;;;;;;;;;22.31;30.81;102098.34;2198213;39;114848;-56
2021/04/08 07:09:54;;;;;;;;;;;;;;;22.31;31.21;102104.81;2195520;39;115265;-55
2021/04/08 07:11:26;;;;;;;;;;;;;;;22.32;31.04;102102.84;2196452;39;115150;-57
2021/04/08 07:12:57;;;;;;;;;;;;;;;22.31;31.08;102107.63;2197949;39;114818;-57
2021/04/08 07:14:28;;;;;;;;;;;;;;;22.29;30.77;102101.47;2194163;39;114992;-57
2021/04/08 07:16:00;;;;;;;;;;;;;;;22.30;30.88;102102.31;2201970;39;114764;-58
2021/04/08 07:17:31;;;;;;;;;;;;;;;22.29;30.91;102095.84;2205445;39;114862;-56
2021/04/08 07:19:04;;;;;;;;;;;;;;;22.28;31.15;102096.97;2206201;39;114451;-57
2021/04/08 07:20:35;;;;;;;;;;;;;;;22.27;30.94;102095.28;2196047;39;115152;-58
2021/04/08 07:22:06;;;;;;;;;;;;;;;22.27;31.02;102092.47;2195799;39;115363;-57
2021/04/08 07:23:38;;;;;;;;;;;;;;;22.25;31.00;102091.09;2200958;39;115346;-58
2021/04/08 07:25:18;;;;;;;;;;;;;;;22.25;31.29;102089.13;2207319;39;114830;-56
2021/04/08 07:26:50;;;;;;;;;;;;;;;22.23;31.13;102096.16;2205409;39;115500;-56
2021/04/08 07:28:31;;;;;;;;;;;;;;;22.23;31.12;102096.16;2205729;39;115757;-57
2021/04/08 07:30:02;;;;;;;;;;;;;;;22.21;31.06;102090.00;2206024;39;115466;-57
2021/04/08 07:31:34;;;;;;;;;;;;;;;22.19;31.12;102090.28;2200067;39;114756;-56
2021/04/08 07:33:05;;;;;;;;;;;;;;;22.16;31.41;102091.72;2205211;39;116057;-56
2021/04/08 07:34:38;;;;;;;;;;;;;;;22.15;31.34;102095.66;2206492;39;115631;-57
2021/04/08 07:36:09;;;;;;;;;;;;;;;22.14;31.15;102091.16;2197852;39;115504;-57
2021/04/08 07:37:42;;;;;;;;;;;;;;;22.10;31.25;102090.06;2204672;39;115034;-56
2021/04/08 07:39:15;;;;;;;;;;;;;;;22.11;31.79;102088.94;2204683;39;114580;-58
2021/04/08 07:40:58;;;;;;;;;;;;;;;22.10;31.69;102089.22;2198065;39;115523;-58
2021/04/08 07:42:31;;;;;;;;;;;;;;;22.08;31.45;102099.91;2196663;39;115701;-58
2021/04/08 07:44:04;;;;;;;;;;;;;;;22.06;31.47;102103.03;2195956;39;115517;-56
2021/04/08 07:45:37;;;;;;;;;;;;;;;22.05;31.27;102092.91;2196064;39;116063;-58
2021/04/08 07:47:15;;;;;;;;;;;;;;;22.06;31.33;102093.75;2203397;39;115987;-58
2021/04/08 07:48:47;;;;;;;;;;;;;;;22.05;31.52;102092.06;2205959;39;116770;-57
2021/04/08 07:50:20;;;;;;;;;;;;;;;22.05;31.33;102098.53;2196181;39;114055;-56